createdAt,value
2019-03-10T00:01:27.210Z,6.77
2019-03-10T00:03:54.969Z,1.80
2019-03-10T00:06:22.735Z,3.03
2019-03-10T00:08:50.605Z,3.93
2019-03-10T00:11:18.355Z,5.77
2019-03-10T00:13:45.995Z,2.40
2019-03-10T00:16:13.784Z,2.10
2019-03-10T00:18:41.565Z,2.53
2019-03-10T00:21:09.323Z,2.90
2019-03-10T00:23:37.017Z,2.67
2019-03-10T00:26:05.291Z,4.33
2019-03-10T00:28:33.037Z,2.90
2019-03-10T00:31:00.908Z,4.73
2019-03-10T00:33:28.780Z,2.73
2019-03-10T00:35:56.523Z,3.60
2019-03-10T00:38:24.312Z,2.70
2019-03-10T00:40:56.185Z,4.00
2019-03-10T00:43:43.385Z,2.33
2019-03-10T00:46:24.835Z,3.63
2019-03-10T00:48:56.856Z,5.10
2019-03-10T00:51:41.256Z,3.10
2019-03-10T00:54:09.172Z,2.77
2019-03-10T00:56:37.038Z,5.33
2019-03-10T00:59:04.804Z,2.37
2019-03-10T01:01:32.551Z,2.60
2019-03-10T01:04:00.346Z,4.10
2019-03-10T01:06:27.987Z,3.17
2019-03-10T01:08:55.647Z,3.63
2019-03-10T01:11:23.423Z,3.17
2019-03-10T01:13:51.301Z,4.00
2019-03-10T01:16:19.021Z,3.50
2019-03-10T01:18:47.555Z,3.20
2019-03-10T01:21:16.033Z,5.03
2019-03-10T01:23:43.789Z,3.57
2019-03-10T01:26:11.667Z,4.13
2019-03-10T01:28:39.536Z,3.30
2019-03-10T01:31:27.160Z,3.43
2019-03-10T01:34:05.096Z,4.77
2019-03-10T01:36:32.316Z,3.60
2019-03-10T01:39:00.085Z,6.37
2019-03-10T01:41:27.862Z,4.30
2019-03-10T01:43:55.619Z,4.50
2019-03-10T01:46:23.383Z,3.70
2019-03-10T01:48:51.162Z,5.03
2019-03-10T01:51:18.813Z,7.03
2019-03-10T01:53:46.435Z,5.17
2019-03-10T01:56:14.446Z,5.20
2019-03-10T01:58:42.218Z,5.57
2019-03-10T02:01:09.933Z,3.30
2019-03-10T02:03:37.745Z,6.13
2019-03-10T02:06:05.446Z,5.53
2019-03-10T02:08:33.159Z,7.03
2019-03-10T02:11:01.047Z,6.83
2019-03-10T02:13:28.706Z,5.57
2019-03-10T02:15:56.364Z,5.70
2019-03-10T02:18:24.237Z,6.97
2019-03-10T02:20:52.111Z,6.20
2019-03-10T02:23:19.772Z,7.37
2019-03-10T02:25:47.550Z,4.00
2019-03-10T02:28:15.283Z,8.20
2019-03-10T02:30:43.068Z,4.80
2019-03-10T02:33:11.132Z,4.23
2019-03-10T02:35:38.926Z,7.40
2019-03-10T02:38:06.673Z,5.27
2019-03-10T02:40:34.540Z,3.93
2019-03-10T02:43:02.252Z,5.17
2019-03-10T02:45:29.968Z,7.97
2019-03-10T02:47:57.845Z,2.87
2019-03-10T02:50:25.521Z,6.30
2019-03-10T02:52:53.261Z,5.33
2019-03-10T02:55:21.144Z,6.70
2019-03-10T02:57:49.207Z,7.23
2019-03-10T03:00:17.135Z,8.43
2019-03-10T03:02:45.154Z,2.67
2019-03-10T03:05:12.899Z,7.90
2019-03-10T03:07:40.687Z,8.67
2019-03-10T03:10:12.361Z,3.43
2019-03-10T03:12:40.111Z,6.47
2019-03-10T03:15:08.792Z,4.53
2019-03-10T03:17:36.556Z,4.87
2019-03-10T03:20:06.987Z,5.70
2019-03-10T03:22:34.749Z,6.40
2019-03-10T03:25:02.534Z,2.57
2019-03-10T03:27:30.290Z,6.80
2019-03-10T03:29:57.949Z,9.73
2019-03-10T03:32:25.705Z,4.37
2019-03-10T03:34:53.488Z,6.53
2019-03-10T03:37:21.339Z,6.13
2019-03-10T03:39:49.038Z,4.83
2019-03-10T03:42:16.782Z,5.57
2019-03-10T03:44:44.546Z,6.03
2019-03-10T03:47:12.301Z,4.60
2019-03-10T03:49:40.082Z,5.10
2019-03-10T03:52:07.840Z,8.27
2019-03-10T03:54:35.502Z,5.27
2019-03-10T03:57:03.380Z,6.33
2019-03-10T03:59:31.131Z,7.67
2019-03-10T04:02:06.490Z,3.33
2019-03-10T04:04:34.247Z,6.00
2019-03-10T04:07:02.016Z,5.97
2019-03-10T04:09:29.792Z,3.97
2019-03-10T04:11:57.666Z,6.10
2019-03-10T04:14:25.342Z,5.50
2019-03-10T04:16:53.265Z,4.30
2019-03-10T04:19:21.045Z,6.47
2019-03-10T04:21:48.762Z,3.30
2019-03-10T04:24:16.462Z,4.73
2019-03-10T04:26:44.241Z,9.67
2019-03-10T04:29:12.029Z,8.70
2019-03-10T04:31:39.795Z,6.63
2019-03-10T04:34:07.423Z,10.63
2019-03-10T04:36:35.196Z,9.33
2019-03-10T04:39:03.072Z,5.37
2019-03-10T04:41:30.836Z,4.03
2019-03-10T04:43:58.613Z,3.37
2019-03-10T04:46:26.583Z,5.03
2019-03-10T04:48:54.346Z,3.77
2019-03-10T04:51:22.108Z,6.93
2019-03-10T04:53:49.873Z,1.77
2019-03-10T04:56:21.836Z,6.20
2019-03-10T04:58:51.241Z,5.33
2019-03-10T05:01:19.400Z,9.57
2019-03-10T05:03:47.286Z,4.53
2019-03-10T05:06:14.935Z,5.57
2019-03-10T05:08:42.624Z,5.17
2019-03-10T05:11:10.390Z,4.43
2019-03-10T05:13:38.023Z,7.80
2019-03-10T05:16:05.799Z,3.93
2019-03-10T05:18:33.578Z,3.60
2019-03-10T05:21:01.332Z,6.67
2019-03-10T05:23:29.836Z,4.43
2019-03-10T05:26:00.143Z,4.90
2019-03-10T05:28:28.834Z,5.10
2019-03-10T05:30:56.500Z,3.67
2019-03-10T05:33:24.371Z,4.77
2019-03-10T05:35:52.048Z,3.43
2019-03-10T05:38:19.796Z,3.97
2019-03-10T05:40:47.665Z,5.13
2019-03-10T05:43:15.534Z,2.80
2019-03-10T05:45:43.310Z,2.73
2019-03-10T05:48:11.047Z,3.07
2019-03-10T05:50:38.683Z,3.50
2019-03-10T05:53:06.602Z,3.07
2019-03-10T05:55:34.463Z,4.80
2019-03-10T05:58:02.117Z,3.13
2019-03-10T06:00:30.002Z,2.10
2019-03-10T06:02:57.736Z,2.40
2019-03-10T06:05:25.529Z,3.97
2019-03-10T06:07:53.249Z,2.10
2019-03-10T06:10:21.066Z,6.13
2019-03-10T06:12:48.843Z,4.77
2019-03-10T06:15:16.489Z,1.87
2019-03-10T06:17:44.256Z,2.73
2019-03-10T06:20:12.020Z,6.57
2019-03-10T06:22:39.670Z,4.40
2019-03-10T06:25:07.680Z,4.03
2019-03-10T06:27:35.420Z,5.43
2019-03-10T06:30:03.501Z,3.97
2019-03-10T06:32:31.371Z,3.07
2019-03-10T06:34:59.111Z,3.90
2019-03-10T06:37:26.793Z,5.43
2019-03-10T06:39:54.573Z,5.73
2019-03-10T06:42:22.425Z,5.67
2019-03-10T06:44:50.196Z,8.83
2019-03-10T06:47:17.852Z,6.17
2019-03-10T06:49:45.532Z,7.77
2019-03-10T06:52:13.389Z,6.73
2019-03-10T06:54:41.150Z,7.37
2019-03-10T06:57:08.920Z,5.40
2019-03-10T06:59:36.790Z,7.47
2019-03-10T07:02:05.472Z,7.83
2019-03-10T07:04:33.230Z,8.23
2019-03-10T07:07:01.112Z,7.80
2019-03-10T07:09:28.874Z,11.07
2019-03-10T07:11:56.540Z,4.27
2019-03-10T07:14:24.300Z,6.10
2019-03-10T07:16:52.045Z,5.30
2019-03-10T07:19:19.740Z,7.50
2019-03-10T07:21:47.384Z,9.40
2019-03-10T07:24:15.253Z,7.07
2019-03-10T07:26:43.032Z,4.27
2019-03-10T07:29:17.971Z,6.67
2019-03-10T07:32:02.611Z,5.93
2019-03-10T07:34:41.043Z,7.37
2019-03-10T07:37:22.537Z,6.83
2019-03-10T07:39:51.828Z,7.37
2019-03-10T07:42:27.226Z,7.93
2019-03-10T07:44:56.479Z,9.23
2019-03-10T07:47:42.576Z,8.33
2019-03-10T07:50:28.511Z,4.90
2019-03-10T07:53:04.219Z,5.80
2019-03-10T07:55:42.641Z,7.57
2019-03-10T07:58:20.754Z,7.87
2019-03-10T08:01:08.459Z,7.30
2019-03-10T08:03:37.884Z,7.07
2019-03-10T08:06:12.912Z,6.73
2019-03-10T08:08:42.205Z,4.83
2019-03-10T08:11:11.632Z,8.27
2019-03-10T08:13:41.036Z,8.43
2019-03-10T08:16:16.477Z,9.53
2019-03-10T08:18:52.332Z,28.97
2019-03-10T08:21:24.400Z,9.17
2019-03-10T08:23:59.445Z,9.33
2019-03-10T08:26:28.837Z,7.90
2019-03-10T08:29:14.637Z,5.63
2019-03-10T08:31:44.140Z,11.60
2019-03-10T08:34:22.458Z,4.97
2019-03-10T08:36:56.559Z,6.90
2019-03-10T08:39:28.833Z,8.13
2019-03-10T08:42:04.263Z,6.83
2019-03-10T08:44:33.534Z,8.50
2019-03-10T08:47:02.885Z,7.17
2019-03-10T08:49:50.324Z,8.00
2019-03-10T08:52:22.384Z,9.20
2019-03-10T08:54:51.611Z,10.03
2019-03-10T08:57:26.967Z,9.10
2019-03-10T09:00:12.507Z,12.40
2019-03-10T09:02:41.813Z,9.70
2019-03-10T09:05:16.536Z,12.20
2019-03-10T09:07:55.224Z,8.40
2019-03-10T09:10:24.663Z,11.83
2019-03-10T09:13:06.269Z,11.07
2019-03-10T09:15:38.013Z,9.33
2019-03-10T09:18:19.916Z,14.53
2019-03-10T09:21:07.631Z,9.80
2019-03-10T09:23:53.843Z,8.67
2019-03-10T09:26:23.261Z,12.37
2019-03-10T09:28:52.555Z,11.17
2019-03-10T09:31:21.853Z,9.93
2019-03-10T09:33:57.188Z,9.47
2019-03-10T09:36:41.964Z,10.73
2019-03-10T09:39:11.781Z,12.73
2019-03-10T09:41:46.824Z,11.83
2019-03-10T09:44:32.526Z,12.77
2019-03-10T09:47:04.972Z,10.10
2019-03-10T09:49:40.111Z,10.53
2019-03-10T09:52:09.520Z,10.30
2019-03-10T09:54:44.780Z,13.20
2019-03-10T09:57:16.924Z,11.27
2019-03-10T10:00:04.352Z,12.23
2019-03-10T10:02:33.867Z,12.77
2019-03-10T10:05:03.270Z,11.93
2019-03-10T10:07:48.946Z,10.10
2019-03-10T10:10:21.239Z,8.87
2019-03-10T10:12:50.523Z,12.27
2019-03-10T10:15:32.223Z,11.13
2019-03-10T10:18:10.940Z,13.10
2019-03-10T10:20:58.271Z,11.33
2019-03-10T10:23:36.888Z,14.27
2019-03-10T10:26:07.113Z,9.90
2019-03-10T10:28:54.627Z,7.87
2019-03-10T10:31:40.308Z,10.20
2019-03-10T10:34:26.421Z,5.77
2019-03-10T10:37:01.871Z,15.10
2019-03-10T10:39:33.942Z,11.83
2019-03-10T10:42:06.001Z,8.77
2019-03-10T10:44:44.637Z,9.30
2019-03-10T10:47:14.138Z,9.67
2019-03-10T10:49:46.407Z,9.83
2019-03-10T10:52:32.384Z,10.93
2019-03-10T10:55:07.624Z,7.93
2019-03-10T10:57:46.169Z,18.33
2019-03-10T11:00:28.670Z,9.93
2019-03-10T11:03:03.855Z,16.57
2019-03-10T11:05:33.111Z,7.60
2019-03-10T11:08:19.302Z,10.83
2019-03-10T11:10:48.486Z,10.13
2019-03-10T11:13:23.956Z,9.97
2019-03-10T11:16:09.825Z,11.67
2019-03-10T11:18:39.441Z,10.43
2019-03-10T11:21:08.736Z,14.83
2019-03-10T11:23:44.300Z,15.50
2019-03-10T11:26:22.923Z,11.90
2019-03-10T11:29:10.461Z,12.57
2019-03-10T11:31:39.667Z,12.23
2019-03-10T11:34:24.209Z,9.50
2019-03-10T11:37:05.695Z,17.57
2019-03-10T11:39:49.931Z,10.37
2019-03-10T11:42:19.244Z,12.03
2019-03-10T11:45:00.531Z,12.30
2019-03-10T11:47:29.920Z,13.00
2019-03-10T11:50:05.276Z,12.77
2019-03-10T11:52:37.464Z,7.13
2019-03-10T11:55:08.027Z,12.67
2019-03-10T11:57:43.334Z,10.20
2019-03-10T12:00:14.577Z,11.47
2019-03-10T12:02:59.028Z,12.20
2019-03-10T12:05:33.741Z,9.20
2019-03-10T12:08:11.880Z,12.63
2019-03-10T12:10:39.635Z,10.43
2019-03-10T12:13:07.506Z,8.63
2019-03-10T12:15:35.375Z,13.13
2019-03-10T12:18:03.120Z,6.67
2019-03-10T12:20:30.918Z,10.43
2019-03-10T12:22:58.547Z,13.50
2019-03-10T12:25:26.341Z,13.67
2019-03-10T12:27:54.096Z,14.43
2019-03-10T12:30:21.779Z,11.43
2019-03-10T12:32:49.627Z,10.20
2019-03-10T12:35:17.256Z,9.77
2019-03-10T12:37:44.952Z,12.67
2019-03-10T12:40:13.437Z,10.73
2019-03-10T12:42:41.200Z,13.40
2019-03-10T12:45:09.635Z,20.20
2019-03-10T12:47:37.554Z,28.50
2019-03-10T12:50:06.978Z,117.00
2019-03-10T12:52:34.832Z,231.27
2019-03-10T12:55:02.589Z,232.47
2019-03-10T12:57:30.300Z,282.53
2019-03-10T12:59:58.230Z,56.03
2019-03-10T13:02:26.015Z,596.40
2019-03-10T13:04:53.862Z,402.17
2019-03-10T13:07:21.630Z,146.70
2019-03-10T13:09:49.397Z,466.23
2019-03-10T13:12:17.143Z,95.57
2019-03-10T13:14:44.925Z,90.63
2019-03-10T13:17:12.711Z,16.47
2019-03-10T13:19:40.702Z,26.10
2019-03-10T13:22:08.533Z,22.90
2019-03-10T13:24:36.377Z,17.90
2019-03-10T13:27:04.007Z,11.00
2019-03-10T13:29:31.686Z,118.70
2019-03-10T13:31:59.420Z,42.00
2019-03-10T13:34:27.153Z,51.10
2019-03-10T13:36:54.937Z,17.50
2019-03-10T13:39:22.694Z,48.40
2019-03-10T13:41:50.477Z,122.57
2019-03-10T13:44:18.303Z,16.43
2019-03-10T13:46:46.101Z,14.47
2019-03-10T13:49:13.859Z,33.13
2019-03-10T13:51:41.633Z,22.27
2019-03-10T13:54:09.492Z,21.20
2019-03-10T13:56:37.258Z,8.33
2019-03-10T13:59:05.003Z,17.47
2019-03-10T14:01:32.783Z,13.90
2019-03-10T14:04:00.657Z,16.73
2019-03-10T14:06:28.375Z,9.93
2019-03-10T14:08:56.083Z,24.37
2019-03-10T14:11:23.954Z,10.27
2019-03-10T14:13:51.733Z,9.53
2019-03-10T14:16:20.619Z,10.93
2019-03-10T14:18:48.371Z,9.73
2019-03-10T14:21:16.067Z,10.87
2019-03-10T14:23:43.773Z,11.07
2019-03-10T14:26:11.567Z,12.07
2019-03-10T14:28:39.298Z,16.97
2019-03-10T14:31:07.213Z,10.87
2019-03-10T14:33:34.969Z,11.17
2019-03-10T14:36:02.745Z,21.23
2019-03-10T14:38:30.375Z,16.87
2019-03-10T14:40:58.174Z,12.30
2019-03-10T14:43:26.038Z,14.40
2019-03-10T14:45:53.684Z,12.97
2019-03-10T14:48:21.456Z,13.63
2019-03-10T14:50:49.227Z,11.50
2019-03-10T14:53:17.101Z,13.00
2019-03-10T14:55:44.751Z,14.20
2019-03-10T14:58:12.476Z,14.20
2019-03-10T15:00:40.186Z,14.90
2019-03-10T15:03:07.836Z,12.73
2019-03-10T15:05:35.632Z,11.97
2019-03-10T15:08:03.385Z,13.80
2019-03-10T15:10:31.165Z,14.73
2019-03-10T15:12:58.843Z,17.80
2019-03-10T15:15:26.587Z,13.23
2019-03-10T15:17:54.327Z,22.33
2019-03-10T15:20:22.125Z,11.77
2019-03-10T15:22:49.890Z,93.77
2019-03-10T15:25:21.328Z,12.40
2019-03-10T15:27:49.209Z,14.87
2019-03-10T15:30:17.663Z,15.70
2019-03-10T15:32:45.862Z,13.90
2019-03-10T15:35:13.945Z,19.60
2019-03-10T15:37:41.689Z,15.70
2019-03-10T15:40:13.477Z,19.63
2019-03-10T15:42:41.226Z,13.60
2019-03-10T15:45:15.336Z,15.57
2019-03-10T15:47:43.086Z,17.43
2019-03-10T15:50:12.305Z,16.77
2019-03-10T15:52:40.174Z,18.43
2019-03-10T15:55:07.919Z,20.40
2019-03-10T15:57:35.700Z,18.43
2019-03-10T16:00:04.796Z,19.90
2019-03-10T16:02:32.548Z,22.40
2019-03-10T16:05:00.438Z,20.97
2019-03-10T16:07:28.306Z,22.07
2019-03-10T16:09:56.174Z,21.27
2019-03-10T16:12:23.815Z,21.20
2019-03-10T16:14:51.601Z,20.10
2019-03-10T16:17:19.472Z,16.10
2019-03-10T16:19:47.115Z,18.13
2019-03-10T16:22:14.902Z,20.53
2019-03-10T16:24:43.055Z,15.33
2019-03-10T16:27:10.836Z,15.53
2019-03-10T16:29:38.483Z,17.63
2019-03-10T16:32:07.189Z,18.53
2019-03-10T16:34:34.883Z,20.67
2019-03-10T16:37:02.589Z,13.53
2019-03-10T16:39:30.502Z,257.03
2019-03-10T16:41:58.365Z,58.53
2019-03-10T16:44:26.121Z,46.83
2019-03-10T16:46:53.790Z,24.87
2019-03-10T16:49:21.468Z,22.40
2019-03-10T16:51:49.206Z,14.23
2019-03-10T16:54:16.973Z,39.13
2019-03-10T16:56:44.761Z,10.53
2019-03-10T16:59:12.495Z,13.20
2019-03-10T17:01:40.268Z,16.03
2019-03-10T17:04:08.156Z,7.90
2019-03-10T17:06:35.926Z,9.47
2019-03-10T17:09:05.098Z,9.60
2019-03-10T17:14:22.777Z,9.00
2019-03-10T17:16:50.411Z,9.43
2019-03-10T17:19:18.205Z,7.53
2019-03-10T17:21:45.958Z,9.77
2019-03-10T17:24:13.732Z,10.17
2019-03-10T17:26:41.490Z,15.47
2019-03-10T17:29:09.356Z,52.47
2019-03-10T17:31:37.041Z,11.13
2019-03-10T17:34:05.330Z,10.65
2019-03-10T17:36:33.172Z,9.03
2019-03-10T17:39:01.039Z,9.70
2019-03-10T17:41:28.809Z,9.37
2019-03-10T17:43:56.580Z,7.33
2019-03-10T17:46:24.436Z,9.03
2019-03-10T17:48:52.205Z,8.43
2019-03-10T17:51:19.850Z,6.33
2019-03-10T17:53:47.638Z,6.67
2019-03-10T17:56:15.508Z,9.77
2019-03-10T17:58:43.268Z,7.80
2019-03-10T18:01:10.912Z,6.53
2019-03-10T18:03:38.795Z,164.20
2019-03-10T18:06:06.669Z,7.70
2019-03-10T18:08:34.536Z,35.30
2019-03-10T18:11:02.334Z,128.70
2019-03-10T18:13:30.189Z,152.60
2019-03-10T18:15:58.039Z,195.70
2019-03-10T18:18:25.922Z,497.33
2019-03-10T18:20:53.552Z,157.50
2019-03-10T18:23:21.333Z,201.87
2019-03-10T18:25:49.110Z,391.97
2019-03-10T18:28:17.087Z,489.57
2019-03-10T18:30:44.942Z,361.03
2019-03-10T18:33:12.810Z,217.40
2019-03-10T18:35:40.578Z,96.07
2019-03-10T18:38:08.340Z,243.70
2019-03-10T18:40:36.103Z,191.17
2019-03-10T18:43:04.076Z,158.67
2019-03-10T18:45:31.857Z,257.03
2019-03-10T18:47:59.604Z,342.53
2019-03-10T18:50:27.913Z,260.83
2019-03-10T18:52:55.757Z,136.07
2019-03-10T18:55:23.834Z,131.90
2019-03-10T18:57:51.697Z,94.67
2019-03-10T19:00:26.317Z,150.67
2019-03-10T19:03:04.845Z,285.63
2019-03-10T19:05:32.607Z,151.87
2019-03-10T19:08:00.481Z,173.93
2019-03-10T19:10:28.245Z,176.63
2019-03-10T19:12:56.208Z,121.97
2019-03-10T19:15:24.575Z,60.27
2019-03-10T19:17:52.466Z,118.50
2019-03-10T19:20:20.225Z,82.90
2019-03-10T19:22:47.991Z,58.90
2019-03-10T19:25:16.075Z,66.30
2019-03-10T19:27:43.811Z,53.33
2019-03-10T19:30:12.731Z,23.97
2019-03-10T19:32:40.491Z,14.23
2019-03-10T19:35:09.069Z,9.37
2019-03-10T19:37:36.956Z,8.77
2019-03-10T19:40:08.387Z,10.45
2019-03-10T19:42:36.366Z,8.13
2019-03-10T19:45:05.366Z,7.27
2019-03-10T19:47:33.232Z,6.23
2019-03-10T19:50:00.859Z,6.30
2019-03-10T19:52:28.671Z,24.80
2019-03-10T19:54:56.527Z,13.43
2019-03-10T19:57:24.287Z,9.60
2019-03-10T19:59:52.058Z,8.97
2019-03-10T20:02:19.821Z,8.27
2019-03-10T20:04:47.580Z,10.70
2019-03-10T20:07:15.352Z,13.53
2019-03-10T20:09:43.117Z,14.87
2019-03-10T20:12:11.092Z,13.67
2019-03-10T20:14:38.962Z,13.47
2019-03-10T20:17:06.840Z,9.60
2019-03-10T20:19:34.701Z,34.03
2019-03-10T20:22:02.461Z,7.00
2019-03-10T20:24:30.229Z,6.93
2019-03-10T20:26:58.188Z,6.17
2019-03-10T20:29:25.970Z,6.37
2019-03-10T20:31:53.617Z,9.97
2019-03-10T20:34:21.389Z,9.80
2019-03-10T20:36:49.267Z,11.73
2019-03-10T20:39:17.127Z,8.47
2019-03-10T20:41:45.103Z,9.77
2019-03-10T20:44:12.854Z,10.57
2019-03-10T20:46:40.845Z,7.00
2019-03-10T20:49:08.488Z,7.33
2019-03-10T20:51:36.156Z,5.13
2019-03-10T20:54:03.831Z,20.33
2019-03-10T20:56:31.507Z,7.23
2019-03-10T20:58:59.465Z,4.93
2019-03-10T21:01:27.225Z,5.53
2019-03-10T21:03:54.988Z,5.33
2019-03-10T21:06:22.965Z,7.57
2019-03-10T21:08:50.721Z,6.77
2019-03-10T21:11:18.376Z,6.07
2019-03-10T21:13:46.075Z,4.60
2019-03-10T21:16:13.819Z,3.73
2019-03-10T21:18:41.585Z,4.27
2019-03-10T21:21:09.454Z,5.70
2019-03-10T21:23:37.116Z,6.00
2019-03-10T21:26:05.401Z,4.78
2019-03-10T21:28:33.247Z,5.33
2019-03-10T21:31:00.887Z,4.20
2019-03-10T21:33:28.547Z,5.30
2019-03-10T21:35:56.464Z,4.37
2019-03-10T21:38:24.251Z,5.80
2019-03-10T21:40:52.012Z,7.43
2019-03-10T21:43:19.774Z,5.37
2019-03-10T21:45:47.834Z,5.57
2019-03-10T21:48:15.696Z,4.33
2019-03-10T21:50:43.565Z,5.27
2019-03-10T21:53:11.434Z,7.10
2019-03-10T21:55:39.121Z,10.17
2019-03-10T21:58:06.844Z,6.33
2019-03-10T22:00:34.488Z,9.23
2019-03-10T22:03:02.275Z,5.73
2019-03-10T22:05:30.046Z,7.33
2019-03-10T22:07:57.817Z,7.33
2019-03-10T22:10:27.990Z,9.00
2019-03-10T22:12:55.168Z,10.20
2019-03-10T22:15:22.876Z,7.43
2019-03-10T22:17:50.555Z,4.20
2019-03-10T22:20:18.709Z,6.63
2019-03-10T22:22:49.213Z,8.20
2019-03-10T22:25:15.756Z,9.47
2019-03-10T22:27:45.554Z,6.60
2019-03-10T22:30:14.887Z,6.20
2019-03-10T22:32:42.861Z,5.67
2019-03-10T22:35:10.507Z,5.20
2019-03-10T22:37:38.294Z,6.33
2019-03-10T22:40:07.897Z,5.47
2019-03-10T22:42:35.527Z,5.97
2019-03-10T22:45:03.329Z,4.10
2019-03-10T22:47:31.097Z,6.57
2019-03-10T22:49:58.861Z,6.40
2019-03-10T22:52:26.644Z,6.90
2019-03-10T22:54:54.505Z,6.00
2019-03-10T22:57:22.344Z,9.17
2019-03-10T22:59:51.148Z,6.67
2019-03-10T23:02:19.022Z,5.33
2019-03-10T23:04:46.769Z,8.73
2019-03-10T23:07:14.553Z,6.53
2019-03-10T23:09:42.343Z,4.27
2019-03-10T23:12:10.108Z,4.23
2019-03-10T23:14:37.858Z,4.23
2019-03-10T23:17:05.720Z,6.17
2019-03-10T23:19:33.360Z,7.57
2019-03-10T23:22:01.140Z,4.40
2019-03-10T23:24:29.004Z,3.50
2019-03-10T23:26:56.792Z,2.17
2019-03-10T23:29:24.543Z,4.93
2019-03-10T23:31:52.308Z,5.57
2019-03-10T23:34:20.178Z,7.43
2019-03-10T23:36:48.050Z,4.57
2019-03-10T23:39:15.821Z,5.30
2019-03-10T23:41:43.685Z,2.93
2019-03-10T23:44:11.454Z,5.47
2019-03-10T23:46:39.312Z,2.50
2019-03-10T23:49:07.087Z,3.73
2019-03-10T23:51:34.727Z,2.77
2019-03-10T23:54:02.509Z,3.80
2019-03-10T23:56:30.271Z,5.00
2019-03-10T23:58:58.040Z,4.93
